Padus, Wisconsin
Current Conditions -  °F | °C
As of 7:35 PM on Saturday 20 Dec 2014 (Local Time) from KAIG Reporting Station
Overcast Overcast  
Wind Chill: 19°   Ceiling: 2000
Heat Index: 26°   Visibility: 7mi
Dew Point: 24°   Wind: 6mph
Humidity: 94%   Direction: 170°S
Pressure: 30.17"   Gusts: NA
Location:  45.4387°N, 88.6036°W
Report Text: KAIG 210135Z AUTO 17005KT 7SM OVC020 M04/M04 A3017 RMK AO2 T10361045
Loading
Personal Weather Stations






























Interactive Weather Map New forecast layout! Learn more

10-Day Weather Forecast

Advertisements
Track Severe Weather on mobile